KOAK

Metropolitan Oakland International Airport

Oakland, California, USA
METAR KOAK 250453Z 27009KT 10SM FEW016 BKN028 BKN041 13/09 A3008 RMK AO2 SLP184 T01330094
Observed Flight Rules
May-25 @ 04:53 UTC (29 minutes ago) Marginal Visual Flight Rules
Wind Visibility Clouds
270° at 9 knots 10 miles
  • Few at 1,600' AGL
  • Broken at 2,800' AGL
  • Broken at 4,100' AGL
Temperatures Readings
Current 13°C / 55°F
Dewpoint 9°C / 48°F
Humidity 77%
Altimeter 30.08" Hg
Pressure 1018.4 hPa
Elevation 26
METAR KOAK 250453Z 27009KT 10SM FEW016 BKN028 BKN041 13/09 A3008 RMK AO2 SLP184 T01330094
Observed Flight Rules
May-25 @ 04:53 UTC
(29 minutes ago)
MVFR
Wind Visibility
270° at 9 knots 10 miles
Clouds
  • Few at 1,600' AGL
  • Broken at 2,800' AGL
  • Broken at 4,100' AGL
Temperature Dewpoint
13°C / 55°F 9°C / 48°F
Humidity Altimeter Pressure
77% 30.08" Hg 1018.4 hPa